Time;durP1;ratioP1;P1;durP2;ratioP2;P2;SDS_P1;SDS_P2;PMS_P1;PMS_P2;Temp;Humidity;BMP_temperature;BMP_pressure;BME280_temperature;BME280_humidity;BME280_pressure;Samples;Min_cycle;Max_cycle;Signal;HPM_P1;HPM_P2
2021/04/08 00:01:11;;;;;;;1.73;1.00;;;2.00;99.90;;;;;;4985018;28;20188;-78
2021/04/08 00:03:36;;;;;;;0.30;0.30;;;2.00;99.90;;;;;;4985498;28;20271;-79
2021/04/08 00:06:02;;;;;;;2.50;1.50;;;2.00;99.90;;;;;;4984734;28;20188;-80
2021/04/08 00:08:28;;;;;;;0.87;0.80;;;2.00;99.90;;;;;;4984338;28;20200;-78
2021/04/08 00:10:54;;;;;;;1.37;0.67;;;2.00;99.90;;;;;;4985065;28;20619;-78
2021/04/08 00:13:20;;;;;;;1.57;0.63;;;2.00;99.90;;;;;;4985327;28;20670;-80
2021/04/08 00:15:45;;;;;;;0.50;0.50;;;2.00;99.90;;;;;;4985872;28;20235;-79
2021/04/08 00:18:11;;;;;;;3.33;0.70;;;2.00;99.90;;;;;;4984958;28;20262;-80
2021/04/08 00:20:37;;;;;;;0.93;0.67;;;2.00;99.90;;;;;;5001218;28;20200;-78
2021/04/08 00:23:02;;;;;;;1.17;0.73;;;1.90;99.90;;;;;;4984497;28;20207;-79
2021/04/08 00:25:28;;;;;;;3.07;0.80;;;1.90;99.90;;;;;;4985877;28;20195;-79
2021/04/08 00:27:54;;;;;;;4.23;0.40;;;1.90;99.90;;;;;;4984778;28;20208;-79
2021/04/08 00:30:20;;;;;;;0.50;0.30;;;1.90;99.90;;;;;;4984540;28;20538;-79
2021/04/08 00:32:46;;;;;;;0.83;0.80;;;1.90;99.90;;;;;;4984924;28;20280;-78
2021/04/08 00:35:11;;;;;;;1.33;0.43;;;1.90;99.90;;;;;;4984380;28;20733;-78
2021/04/08 00:37:37;;;;;;;0.87;0.30;;;2.00;99.90;;;;;;4986226;28;20623;-79
2021/04/08 00:40:08;;;;;;;1.60;0.33;;;1.90;99.90;;;;;;4985916;28;20192;-79
2021/04/08 00:42:33;;;;;;;0.40;0.30;;;1.90;99.90;;;;;;4984384;28;20193;-78
2021/04/08 00:44:59;;;;;;;0.47;0.47;;;1.90;99.90;;;;;;4985561;28;20525;-79
2021/04/08 00:47:25;;;;;;;1.53;0.50;;;2.00;99.90;;;;;;4984572;28;20276;-78
2021/04/08 00:49:50;;;;;;;1.00;0.90;;;2.00;99.90;;;;;;4984669;28;20208;-78
2021/04/08 00:52:16;;;;;;;2.27;0.73;;;1.90;99.90;;;;;;4984341;28;20201;-79
2021/04/08 00:54:42;;;;;;;0.30;0.20;;;1.90;99.90;;;;;;4985445;28;20200;-78
2021/04/08 00:57:07;;;;;;;0.83;0.83;;;1.90;99.90;;;;;;4984376;28;20188;-80
2021/04/08 00:59:33;;;;;;;0.87;0.40;;;2.00;99.90;;;;;;4984184;28;20289;-79
2021/04/08 01:01:59;;;;;;;1.67;0.50;;;2.00;99.90;;;;;;5000301;28;20242;-77
2021/04/08 01:04:24;;;;;;;0.77;0.30;;;2.00;99.90;;;;;;4985022;28;20270;-80
2021/04/08 01:06:51;;;;;;;0.90;0.70;;;2.00;99.90;;;;;;4983570;28;20180;-79
2021/04/08 01:09:17;;;;;;;0.60;0.60;;;2.00;99.90;;;;;;4985171;28;20204;-80
2021/04/08 01:11:42;;;;;;;1.10;0.87;;;2.00;99.90;;;;;;4984323;28;20180;-79
2021/04/08 01:14:08;;;;;;;2.50;0.87;;;2.00;99.90;;;;;;4984782;28;20695;-78
2021/04/08 01:16:44;;;;;;;5.27;0.83;;;1.90;99.90;;;;;;4983488;28;20262;-79
2021/04/08 01:19:42;;;;;;;0.40;0.40;;;1.90;99.90;;;;;;4984309;28;20222;-79
2021/04/08 01:22:19;;;;;;;2.03;0.90;;;1.90;99.90;;;;;;4988406;28;20237;-79
2021/04/08 01:25:05;;;;;;;1.17;1.03;;;1.90;99.90;;;;;;4988194;28;20180;-78
2021/04/08 01:27:37;;;;;;;1.07;0.67;;;1.90;99.90;;;;;;4989076;28;20688;-79
2021/04/08 01:30:24;;;;;;;0.80;0.53;;;1.80;99.90;;;;;;4990703;28;20618;-79
2021/04/08 01:32:52;;;;;;;1.23;0.67;;;1.80;99.90;;;;;;4990125;28;21204;-79
2021/04/08 01:35:24;;;;;;;0.37;0.30;;;1.80;99.90;;;;;;4989446;28;20177;-79
2021/04/08 01:38:04;;;;;;;0.60;0.60;;;1.80;99.90;;;;;;4989768;28;20200;-78
2021/04/08 01:40:30;;;;;;;1.03;0.47;;;1.80;99.90;;;;;;4988311;28;20271;-79
2021/04/08 01:42:56;;;;;;;0.53;0.50;;;1.90;99.90;;;;;;5004885;28;20192;-79
2021/04/08 01:45:23;;;;;;;1.90;1.00;;;1.90;99.90;;;;;;4989241;28;20238;-80
2021/04/08 01:47:50;;;;;;;3.47;0.50;;;1.90;99.90;;;;;;5004444;28;20204;-78
2021/04/08 01:50:19;;;;;;;1.17;0.77;;;1.90;99.90;;;;;;4987945;28;20208;-78
2021/04/08 01:52:48;;;;;;;1.60;0.70;;;1.90;99.90;;;;;;4988997;28;20239;-79
2021/04/08 01:55:14;;;;;;;0.87;0.57;;;1.90;99.90;;;;;;5004119;28;20203;-79
2021/04/08 01:57:42;;;;;;;1.33;1.07;;;1.90;99.90;;;;;;4987913;28;20211;-79
2021/04/08 02:00:12;;;;;;;2.10;0.53;;;1.90;99.90;;;;;;4989279;28;20278;-80
2021/04/08 02:02:40;;;;;;;1.30;0.83;;;2.00;99.90;;;;;;4988114;28;20184;-80
2021/04/08 02:05:12;;;;;;;0.67;0.60;;;2.00;99.90;;;;;;5004345;28;20192;-80
2021/04/08 02:07:40;;;;;;;1.30;0.60;;;2.00;99.90;;;;;;4987547;28;20294;-79
2021/04/08 02:10:10;;;;;;;2.00;1.00;;;2.00;99.90;;;;;;4987585;28;20204;-79
2021/04/08 02:12:39;;;;;;;1.53;0.80;;;2.00;99.90;;;;;;5004395;28;20539;-79
2021/04/08 02:15:07;;;;;;;0.73;0.73;;;2.00;99.90;;;;;;4988642;28;20283;-80
2021/04/08 02:17:35;;;;;;;0.50;0.50;;;1.90;99.90;;;;;;4987293;28;20287;-79
2021/04/08 02:20:14;;;;;;;3.27;1.20;;;1.90;99.90;;;;;;4989069;28;20188;-79
2021/04/08 02:22:43;;;;;;;1.17;0.50;;;1.90;99.90;;;;;;5003696;28;20184;-79
2021/04/08 02:25:11;;;;;;;0.40;0.40;;;1.80;99.90;;;;;;4987277;28;20191;-80
2021/04/08 02:27:39;;;;;;;5.03;1.00;;;1.70;99.90;;;;;;4987412;28;20196;-78
2021/04/08 02:30:10;;;;;;;3.47;1.73;;;1.70;99.90;;;;;;4987263;28;20315;-79
2021/04/08 02:32:37;;;;;;;0.63;0.60;;;1.70;99.90;;;;;;4986789;28;20269;-80
2021/04/08 02:35:15;;;;;;;0.93;0.80;;;1.60;99.90;;;;;;4988216;28;20230;-79
2021/04/08 02:37:43;;;;;;;1.80;1.00;;;1.60;99.90;;;;;;5003286;28;20250;-79
2021/04/08 02:40:11;;;;;;;2.00;0.37;;;1.50;99.90;;;;;;4987258;28;20216;-78
2021/04/08 02:42:37;;;;;;;0.50;0.50;;;1.40;99.90;;;;;;4988582;28;20231;-78
2021/04/08 02:45:08;;;;;;;5.33;1.30;;;1.50;99.90;;;;;;4988632;28;20673;-78
2021/04/08 02:47:33;;;;;;;2.43;0.70;;;1.50;99.90;;;;;;4986111;28;20322;-78
2021/04/08 02:49:59;;;;;;;1.27;1.17;;;1.50;99.90;;;;;;4986517;28;20290;-78
2021/04/08 02:52:29;;;;;;;4.17;1.07;;;1.50;99.90;;;;;;4987060;28;20238;-79
2021/04/08 02:55:12;;;;;;;0.50;0.50;;;1.50;99.90;;;;;;4986619;28;20791;-78
2021/04/08 02:57:55;;;;;;;4.23;0.87;;;1.50;99.90;;;;;;4987869;28;20196;-79
2021/04/08 03:00:25;;;;;;;3.20;1.00;;;1.50;99.90;;;;;;5003255;28;20192;-78
2021/04/08 03:02:52;;;;;;;0.70;0.50;;;1.60;99.90;;;;;;4988336;28;20248;-80
2021/04/08 03:05:20;;;;;;;0.50;0.50;;;1.60;99.90;;;;;;4987027;28;20185;-78
2021/04/08 03:07:50;;;;;;;0.80;0.80;;;1.50;99.90;;;;;;4987247;28;20286;-79
2021/04/08 03:10:16;;;;;;;4.93;1.20;;;1.60;99.90;;;;;;4987893;28;20192;-79
2021/04/08 03:12:49;;;;;;;4.93;1.50;;;1.60;99.90;;;;;;4987978;28;20243;-78
2021/04/08 03:15:26;;;;;;;1.53;1.13;;;1.60;99.90;;;;;;4986871;28;20184;-79
2021/04/08 03:17:53;;;;;;;0.73;0.60;;;1.50;99.90;;;;;;4987808;28;20249;-80
2021/04/08 03:20:20;;;;;;;1.10;0.83;;;1.60;99.90;;;;;;4987909;28;20195;-78
2021/04/08 03:22:46;;;;;;;1.63;0.87;;;1.50;99.90;;;;;;4986277;28;20188;-77
2021/04/08 03:25:13;;;;;;;4.00;0.83;;;1.60;99.90;;;;;;4986291;28;20262;-78
2021/04/08 03:27:40;;;;;;;8.97;1.77;;;1.50;99.90;;;;;;5002370;28;20738;-78
2021/04/08 03:30:11;;;;;;;4.67;1.13;;;1.50;99.90;;;;;;4986362;28;20207;-80
2021/04/08 03:32:37;;;;;;;5.40;1.13;;;1.40;99.90;;;;;;4986015;28;20209;-78
2021/04/08 03:35:03;;;;;;;3.70;1.30;;;1.30;99.90;;;;;;4987508;28;20215;-80
2021/04/08 03:37:29;;;;;;;1.43;0.83;;;1.20;99.90;;;;;;4987434;28;20575;-78
2021/04/08 03:39:55;;;;;;;1.53;1.37;;;1.10;99.90;;;;;;4986417;28;20181;-79
2021/04/08 03:42:22;;;;;;;1.53;1.37;;;1.20;99.90;;;;;;4987126;28;20196;-78
2021/04/08 03:44:50;;;;;;;4.80;1.07;;;1.00;99.90;;;;;;5002308;28;20735;-79
2021/04/08 03:47:16;;;;;;;1.67;0.97;;;1.10;99.90;;;;;;4985741;28;20192;-79
2021/04/08 03:49:43;;;;;;;1.17;0.97;;;1.00;99.90;;;;;;4986023;28;20750;-78
2021/04/08 03:52:11;;;;;;;0.73;0.70;;;1.00;99.90;;;;;;5002205;28;20184;-79
2021/04/08 03:54:37;;;;;;;1.00;0.90;;;1.00;99.90;;;;;;4986851;28;20270;-79
2021/04/08 03:57:06;;;;;;;1.00;0.93;;;0.90;99.90;;;;;;4985303;28;20319;-78
2021/04/08 03:59:33;;;;;;;0.80;0.80;;;0.90;99.90;;;;;;4984745;28;20275;-78
2021/04/08 04:01:59;;;;;;;1.50;1.40;;;0.90;99.90;;;;;;4986682;28;20192;-80
2021/04/08 04:04:26;;;;;;;1.30;1.20;;;0.90;99.90;;;;;;4984934;28;20195;-80
2021/04/08 04:06:54;;;;;;;0.80;0.80;;;0.90;99.90;;;;;;4985500;28;20185;-78
2021/04/08 04:09:21;;;;;;;2.30;1.50;;;0.80;99.90;;;;;;4985485;28;20204;-80
2021/04/08 04:11:48;;;;;;;0.57;0.57;;;0.80;99.90;;;;;;4984714;28;20315;-79
2021/04/08 04:14:21;;;;;;;1.67;1.10;;;0.90;99.90;;;;;;5001969;28;20194;-80
2021/04/08 04:16:49;;;;;;;0.40;0.40;;;1.00;99.90;;;;;;4986426;28;20180;-78
2021/04/08 04:19:14;;;;;;;3.53;0.90;;;1.00;99.90;;;;;;4985319;28;20206;-79
2021/04/08 04:21:40;;;;;;;1.00;0.80;;;1.10;99.90;;;;;;4985030;28;20188;-78
2021/04/08 04:24:07;;;;;;;0.73;0.47;;;1.10;99.90;;;;;;4985253;28;20185;-79
2021/04/08 04:26:33;;;;;;;5.70;1.43;;;1.10;99.90;;;;;;5001041;28;20188;-79
2021/04/08 04:28:58;;;;;;;1.77;1.20;;;1.10;99.90;;;;;;4986455;28;20208;-79
2021/04/08 04:31:24;;;;;;;1.30;0.90;;;1.00;99.90;;;;;;5001467;28;20187;-78
2021/04/08 04:33:50;;;;;;;0.37;0.37;;;1.00;99.90;;;;;;4985056;28;20203;-80
2021/04/08 04:36:18;;;;;;;1.10;0.60;;;1.10;99.90;;;;;;4985126;28;20744;-79
2021/04/08 04:38:43;;;;;;;3.97;1.00;;;0.90;99.90;;;;;;4984680;28;20271;-79
2021/04/08 04:41:09;;;;;;;0.80;0.80;;;0.90;99.90;;;;;;4986457;28;20910;-79
2021/04/08 04:43:34;;;;;;;3.60;1.20;;;0.90;99.90;;;;;;4984829;28;20199;-78
2021/04/08 04:46:00;;;;;;;0.60;0.60;;;0.90;99.90;;;;;;4986872;28;20677;-79
2021/04/08 04:48:26;;;;;;;1.37;1.00;;;0.90;99.90;;;;;;4984878;28;20208;-78
2021/04/08 04:50:52;;;;;;;1.07;0.97;;;0.90;99.90;;;;;;4984785;28;20691;-79
2021/04/08 04:53:18;;;;;;;1.07;0.73;;;0.90;99.90;;;;;;5001094;28;20540;-79
2021/04/08 04:55:44;;;;;;;0.43;0.43;;;0.90;99.90;;;;;;4986090;28;20200;-78
2021/04/08 04:58:09;;;;;;;4.73;1.27;;;0.90;99.90;;;;;;4986010;28;20216;-79
2021/04/08 05:00:35;;;;;;;1.60;1.07;;;0.90;99.90;;;;;;4984980;28;20184;-79
2021/04/08 05:03:00;;;;;;;0.60;0.53;;;0.90;99.90;;;;;;4986233;28;20192;-78
2021/04/08 05:05:26;;;;;;;1.27;1.17;;;0.90;99.90;;;;;;5001707;28;20188;-78
2021/04/08 05:07:52;;;;;;;3.73;0.70;;;0.90;99.90;;;;;;4985817;28;20215;-78
2021/04/08 05:10:17;;;;;;;0.57;0.57;;;0.90;99.90;;;;;;4986689;28;20216;-80
2021/04/08 05:12:43;;;;;;;2.23;1.23;;;0.90;99.90;;;;;;4984969;28;20189;-78
2021/04/08 05:15:09;;;;;;;1.13;1.03;;;0.90;99.90;;;;;;4986595;28;20188;-78
2021/04/08 05:17:35;;;;;;;3.17;0.87;;;0.90;99.90;;;;;;5001308;28;20722;-80
2021/04/08 05:20:00;;;;;;;0.60;0.60;;;0.90;99.90;;;;;;4985019;28;20202;-77
2021/04/08 05:22:26;;;;;;;2.07;1.40;;;1.00;99.90;;;;;;4985091;28;20198;-79
2021/04/08 05:24:52;;;;;;;1.40;1.30;;;1.00;99.90;;;;;;4986548;28;20191;-79
2021/04/08 05:27:18;;;;;;;4.07;1.20;;;1.00;99.90;;;;;;4984773;28;20670;-79
2021/04/08 05:29:44;;;;;;;3.53;0.83;;;1.00;99.90;;;;;;4981764;28;20227;-80
2021/04/08 05:32:10;;;;;;;2.73;1.03;;;1.10;99.90;;;;;;4982765;28;20196;-80
2021/04/08 05:34:35;;;;;;;0.87;0.60;;;1.10;99.90;;;;;;4982994;28;20184;-79
2021/04/08 05:37:01;;;;;;;2.80;1.20;;;1.20;99.90;;;;;;4980818;28;20184;-78
2021/04/08 05:39:28;;;;;;;0.90;0.60;;;1.20;99.90;;;;;;4982524;28;20370;-79
2021/04/08 05:41:54;;;;;;;1.50;1.23;;;1.30;99.90;;;;;;4983457;28;20603;-80
2021/04/08 05:44:20;;;;;;;0.87;0.70;;;1.40;99.90;;;;;;4984462;28;20184;-79
2021/04/08 05:46:46;;;;;;;1.97;0.80;;;1.50;99.90;;;;;;4984252;28;20180;-79
2021/04/08 05:49:11;;;;;;;0.57;0.57;;;1.60;99.90;;;;;;4984879;28;20220;-78
2021/04/08 05:51:37;;;;;;;8.47;0.97;;;1.60;99.90;;;;;;4983914;28;20185;-78
2021/04/08 05:54:03;;;;;;;0.67;0.60;;;1.60;99.90;;;;;;4984346;28;20222;-79
2021/04/08 05:56:28;;;;;;;1.03;0.93;;;1.70;99.90;;;;;;4985512;28;20184;-79
2021/04/08 05:58:54;;;;;;;0.67;0.67;;;1.80;99.90;;;;;;4984727;28;20200;-80
2021/04/08 06:01:20;;;;;;;0.80;0.80;;;2.00;99.90;;;;;;4985897;28;20252;-79
2021/04/08 06:03:47;;;;;;;1.50;1.10;;;2.00;99.90;;;;;;4983692;28;20207;-78
2021/04/08 06:06:12;;;;;;;2.83;1.07;;;2.00;99.90;;;;;;5002824;28;20187;-79
2021/04/08 06:08:38;;;;;;;1.30;0.80;;;2.00;99.90;;;;;;4987514;28;20205;-79
2021/04/08 06:11:04;;;;;;;3.77;1.63;;;2.20;99.90;;;;;;4989279;28;20674;-80
2021/04/08 06:13:29;;;;;;;2.33;1.67;;;2.30;99.90;;;;;;4989433;28;20676;-80
2021/04/08 06:15:55;;;;;;;3.90;1.77;;;2.40;99.90;;;;;;4989094;28;20192;-79
2021/04/08 06:18:21;;;;;;;1.97;0.67;;;2.60;99.90;;;;;;5003491;28;20212;-80
2021/04/08 06:20:46;;;;;;;0.63;0.63;;;2.80;99.90;;;;;;4986803;28;20185;-78
2021/04/08 06:23:12;;;;;;;1.60;1.00;;;3.10;99.90;;;;;;4988256;28;20572;-79
2021/04/08 06:25:38;;;;;;;0.80;0.80;;;3.20;99.90;;;;;;4987270;28;20260;-77
2021/04/08 06:28:04;;;;;;;2.40;0.87;;;3.60;99.90;;;;;;4987213;28;20224;-80
2021/04/08 06:30:30;;;;;;;1.30;1.20;;;3.80;99.90;;;;;;4987369;28;20612;-79
2021/04/08 06:32:55;;;;;;;0.93;0.87;;;3.70;99.90;;;;;;4988835;28;20246;-78
2021/04/08 06:35:22;;;;;;;0.60;0.60;;;3.50;99.90;;;;;;4987309;28;20214;-80
2021/04/08 06:37:50;;;;;;;0.80;0.80;;;3.40;99.90;;;;;;4987117;28;21063;-79
2021/04/08 06:40:17;;;;;;;1.20;0.97;;;3.30;99.90;;;;;;4987434;28;20192;-80
2021/04/08 06:42:44;;;;;;;1.13;0.87;;;3.30;99.90;;;;;;4986723;28;20191;-78
2021/04/08 06:45:11;;;;;;;3.80;1.00;;;3.40;99.90;;;;;;4988083;28;20207;-80
2021/04/08 06:47:52;;;;;;;0.90;0.50;;;3.50;99.90;;;;;;4987930;28;20294;-77
2021/04/08 06:50:21;;;;;;;1.83;0.80;;;3.50;99.90;;;;;;5002534;28;20662;-78
2021/04/08 06:52:48;;;;;;;2.53;0.73;;;3.50;99.90;;;;;;5002757;28;20177;-80
2021/04/08 06:55:14;;;;;;;1.23;1.10;;;3.40;99.90;;;;;;4987580;28;20207;-79
2021/04/08 06:57:42;;;;;;;0.97;0.87;;;3.30;99.90;;;;;;4985997;28;20578;-79
2021/04/08 07:00:09;;;;;;;1.70;1.30;;;3.40;99.90;;;;;;4987618;28;20192;-79
2021/04/08 07:02:36;;;;;;;1.70;1.50;;;3.30;99.90;;;;;;4987351;28;20184;-80
2021/04/08 07:05:06;;;;;;;1.53;1.03;;;3.40;99.90;;;;;;4985565;28;20658;-78
2021/04/08 07:07:32;;;;;;;4.30;1.23;;;3.60;99.90;;;;;;4983772;28;20679;-80
2021/04/08 07:09:57;;;;;;;1.37;1.10;;;3.50;99.90;;;;;;4986152;28;20204;-80
2021/04/08 07:12:23;;;;;;;1.30;1.00;;;3.60;99.90;;;;;;4985979;28;20181;-79
2021/04/08 07:14:52;;;;;;;3.00;1.67;;;3.70;99.90;;;;;;5002688;28;20531;-80
2021/04/08 07:17:18;;;;;;;2.13;1.13;;;3.80;99.90;;;;;;4986880;28;20204;-79
2021/04/08 07:19:44;;;;;;;3.83;1.43;;;4.00;99.90;;;;;;4986049;28;20985;-78
2021/04/08 07:22:11;;;;;;;2.80;1.50;;;4.00;99.90;;;;;;4986888;28;20690;-78
2021/04/08 07:24:45;;;;;;;1.00;0.90;;;4.00;99.90;;;;;;4987288;28;20267;-78
2021/04/08 07:27:17;;;;;;;2.87;0.80;;;4.10;99.90;;;;;;4986925;28;20250;-79
2021/04/08 07:29:47;;;;;;;1.73;1.60;;;4.30;99.90;;;;;;4985517;28;20212;-78
2021/04/08 07:32:23;;;;;;;2.80;1.43;;;4.30;99.90;;;;;;5000821;28;20275;-79
2021/04/08 07:34:55;;;;;;;11.13;1.50;;;4.40;99.90;;;;;;4984881;28;20184;-79
2021/04/08 07:37:32;;;;;;;0.63;0.63;;;4.50;99.90;;;;;;4986443;28;20196;-79
2021/04/08 07:40:00;;;;;;;4.87;1.70;;;4.60;99.90;;;;;;4985996;28;20192;-79
2021/04/08 07:42:31;;;;;;;1.70;1.10;;;4.60;99.90;;;;;;4986823;28;20303;-80
2021/04/08 07:45:00;;;;;;;0.93;0.83;;;4.50;99.90;;;;;;5001844;28;20188;-80
2021/04/08 07:47:32;;;;;;;2.40;1.50;;;4.50;99.90;;;;;;4986781;28;20188;-78
2021/04/08 07:50:03;;;;;;;1.03;1.03;;;4.50;99.90;;;;;;4985241;28;20204;-80
2021/04/08 07:52:32;;;;;;;1.20;1.03;;;4.60;99.90;;;;;;4986308;28;20251;-78
2021/04/08 07:55:06;;;;;;;0.67;0.50;;;4.70;99.90;;;;;;4986514;28;20215;-79
2021/04/08 07:57:54;;;;;;;2.07;1.27;;;4.80;99.90;;;;;;4984532;28;20199;-78
2021/04/08 08:00:25;;;;;;;1.33;0.67;;;5.10;99.90;;;;;;5003217;28;20187;-79
2021/04/08 08:02:52;;;;;;;1.27;0.80;;;5.20;99.90;;;;;;4987626;28;20188;-80
2021/04/08 08:05:24;;;;;;;1.20;1.03;;;5.10;99.90;;;;;;4984703;28;20668;-79
2021/04/08 08:07:50;;;;;;;1.37;1.27;;;4.90;99.90;;;;;;4982304;28;20238;-77
2021/04/08 08:10:25;;;;;;;2.77;0.87;;;5.00;99.90;;;;;;4986433;28;20204;-78
2021/04/08 08:12:52;;;;;;;3.00;1.63;;;5.10;99.90;;;;;;4985525;28;20188;-81
2021/04/08 08:15:20;;;;;;;1.27;0.83;;;5.20;99.90;;;;;;4984466;28;20181;-80
2021/04/08 08:17:48;;;;;;;4.30;1.10;;;5.10;99.90;;;;;;4986527;28;20200;-78
2021/04/08 08:20:15;;;;;;;2.63;1.23;;;5.10;99.90;;;;;;4984770;28;20191;-82
2021/04/08 08:22:42;;;;;;;1.23;1.00;;;5.40;99.90;;;;;;4978429;28;20192;-80
2021/04/08 08:25:09;;;;;;;1.07;0.97;;;5.70;99.90;;;;;;4982135;28;20188;-80
2021/04/08 08:27:45;;;;;;;2.17;1.33;;;5.70;99.90;;;;;;4984697;28;20203;-81
2021/04/08 08:30:18;;;;;;;1.10;1.00;;;5.60;99.90;;;;;;4983845;28;20295;-79
2021/04/08 08:33:11;;;;;;;3.90;1.07;;;5.40;99.90;;;;;;4984746;28;20184;-81
2021/04/08 08:35:37;;;;;;;1.23;0.90;;;5.30;99.90;;;;;;4983618;28;20303;-79
2021/04/08 08:38:23;;;;;;;1.90;1.20;;;5.30;99.90;;;;;;4981449;28;20212;-81
2021/04/08 08:40:50;;;;;;;1.67;1.07;;;5.50;99.90;;;;;;4983051;28;20237;-79
2021/04/08 08:43:17;;;;;;;1.63;0.60;;;5.50;99.90;;;;;;4984052;28;20276;-79
2021/04/08 08:45:43;;;;;;;1.03;0.97;;;5.40;99.90;;;;;;5001330;28;20188;-83
2021/04/08 08:48:15;;;;;;;5.57;1.43;;;5.50;99.90;;;;;;4985807;28;21059;-81
2021/04/08 08:50:43;;;;;;;0.80;0.50;;;5.60;99.90;;;;;;4992068;28;20203;-81
2021/04/08 08:53:14;;;;;;;1.00;1.00;;;5.70;99.90;;;;;;4989118;28;20195;-81
2021/04/08 08:55:42;;;;;;;1.23;0.93;;;5.70;99.90;;;;;;4990945;28;20235;-79
2021/04/08 08:58:09;;;;;;;2.37;0.57;;;6.00;99.90;;;;;;5006267;28;20236;-81
2021/04/08 09:00:36;;;;;;;0.83;0.70;;;5.90;99.90;;;;;;4991835;28;20188;-81
2021/04/08 09:03:04;;;;;;;2.77;0.80;;;5.90;99.90;;;;;;4990625;28;20202;-80
2021/04/08 09:05:33;;;;;;;0.80;0.80;;;6.00;99.90;;;;;;4992542;28;20283;-79
2021/04/08 09:08:08;;;;;;;0.70;0.70;;;6.20;99.90;;;;;;4989880;28;20207;-79
2021/04/08 09:10:39;;;;;;;1.27;0.60;;;6.20;99.90;;;;;;4988893;28;20222;-78
2021/04/08 09:13:06;;;;;;;0.50;0.50;;;6.30;99.90;;;;;;5003600;28;20279;-78
2021/04/08 09:15:35;;;;;;;0.50;0.50;;;6.30;99.90;;;;;;4983553;28;20551;-75
2021/04/08 09:18:05;;;;;;;0.87;0.87;;;6.20;99.90;;;;;;4981130;28;20211;-75
2021/04/08 09:20:32;;;;;;;2.60;0.97;;;6.20;99.90;;;;;;4982526;28;20628;-77
2021/04/08 09:23:03;;;;;;;1.20;1.10;;;6.30;99.90;;;;;;4983514;28;21246;-77
2021/04/08 09:25:32;;;;;;;1.50;0.90;;;6.10;99.90;;;;;;5000998;28;20291;-81
2021/04/08 09:28:07;;;;;;;0.50;0.50;;;6.00;99.90;;;;;;4984396;28;20208;-80
2021/04/08 09:30:55;;;;;;;1.70;1.10;;;6.00;99.90;;;;;;4985420;28;20198;-78
2021/04/08 09:36:27;;;;;;;0.80;0.67;;;6.40;99.90;;;;;;4984582;28;20192;-81
2021/04/08 09:38:56;;;;;;;2.67;1.47;;;6.50;99.90;;;;;;4977577;28;20231;-79
2021/04/08 09:41:43;;;;;;;1.43;0.83;;;6.80;99.90;;;;;;4985648;28;20195;-79
2021/04/08 09:44:10;;;;;;;0.57;0.50;;;7.20;99.90;;;;;;4988448;28;20199;-78
2021/04/08 09:46:48;;;;;;;1.13;0.50;;;7.30;99.90;;;;;;4988616;28;20668;-77
2021/04/08 09:49:13;;;;;;;0.60;0.53;;;7.50;99.90;;;;;;4987673;28;20212;-77
2021/04/08 09:51:45;;;;;;;0.63;0.60;;;7.30;99.90;;;;;;4987196;28;21008;-78
2021/04/08 09:54:15;;;;;;;1.87;0.70;;;7.10;99.90;;;;;;4986388;28;20287;-77
2021/04/08 09:56:55;;;;;;;0.93;0.80;;;7.20;99.90;;;;;;4988537;28;20187;-76
2021/04/08 09:59:23;;;;;;;2.40;0.57;;;7.10;99.90;;;;;;4987539;28;20204;-78
2021/04/08 10:01:49;;;;;;;0.73;0.40;;;6.90;99.90;;;;;;4988407;28;20184;-77
2021/04/08 10:04:18;;;;;;;0.67;0.67;;;6.50;99.90;;;;;;5002176;28;20700;-79
2021/04/08 10:06:45;;;;;;;0.60;0.60;;;6.40;99.90;;;;;;4988721;28;20184;-77
2021/04/08 10:09:16;;;;;;;1.33;0.70;;;6.40;99.90;;;;;;4983890;28;20617;-79
2021/04/08 10:11:42;;;;;;;1.57;0.80;;;6.40;99.90;;;;;;4986451;28;20180;-78
2021/04/08 10:14:15;;;;;;;0.93;0.50;;;6.60;99.90;;;;;;4987559;28;20244;-78
2021/04/08 10:16:41;;;;;;;0.57;0.40;;;6.60;99.90;;;;;;5002656;28;20185;-78
2021/04/08 10:19:06;;;;;;;0.70;0.70;;;6.70;99.90;;;;;;4987729;28;20215;-78
2021/04/08 10:21:32;;;;;;;0.83;0.77;;;6.60;99.90;;;;;;4986528;28;20200;-78
2021/04/08 10:23:57;;;;;;;1.30;0.60;;;6.80;99.90;;;;;;4987730;28;20195;-78
2021/04/08 10:26:29;;;;;;;3.73;0.70;;;7.00;99.90;;;;;;4988323;28;20187;-76
2021/04/08 10:28:57;;;;;;;2.30;1.00;;;7.10;99.90;;;;;;4987585;28;20207;-78
2021/04/08 10:31:29;;;;;;;1.17;0.50;;;7.20;99.90;;;;;;4987810;28;20192;-78
2021/04/08 10:34:03;;;;;;;1.33;0.90;;;7.30;99.90;;;;;;4986002;28;20187;-77
2021/04/08 10:36:33;;;;;;;1.17;0.63;;;7.40;99.90;;;;;;4985955;28;20272;-78
2021/04/08 10:39:10;;;;;;;0.50;0.40;;;7.20;99.90;;;;;;4985832;28;20207;-78
2021/04/08 10:41:37;;;;;;;1.07;0.70;;;7.10;99.90;;;;;;4987735;28;20191;-77
2021/04/08 10:44:32;;;;;;;0.30;0.30;;;6.90;99.90;;;;;;4987380;28;20203;-77
2021/04/08 10:47:18;;;;;;;0.70;0.50;;;7.00;99.90;;;;;;4987529;28;20219;-78
2021/04/08 10:49:51;;;;;;;1.37;0.80;;;7.00;99.90;;;;;;4987128;28;20195;-78
2021/04/08 10:52:22;;;;;;;0.43;0.40;;;7.10;99.90;;;;;;4986472;28;20208;-78
2021/04/08 10:54:50;;;;;;;1.93;0.63;;;7.10;99.90;;;;;;4985487;28;20644;-77
2021/04/08 10:57:16;;;;;;;2.20;0.97;;;7.10;99.90;;;;;;4986990;28;20184;-78
2021/04/08 10:59:44;;;;;;;5.87;0.67;;;7.30;99.90;;;;;;4986985;28;20239;-78
2021/04/08 11:02:18;;;;;;;1.00;0.60;;;7.40;99.90;;;;;;4986598;28;20192;-78
2021/04/08 11:04:44;;;;;;;1.13;0.60;;;7.40;99.90;;;;;;4986706;28;20180;-78
2021/04/08 11:07:09;;;;;;;0.60;0.60;;;7.30;99.90;;;;;;4985421;28;20553;-78
2021/04/08 11:09:35;;;;;;;1.67;0.53;;;7.10;99.90;;;;;;4986818;28;20216;-78
2021/04/08 11:12:19;;;;;;;0.90;0.50;;;6.80;99.90;;;;;;5002275;28;20646;-78
2021/04/08 11:14:56;;;;;;;1.97;0.57;;;6.60;99.90;;;;;;4985015;28;20191;-77
2021/04/08 11:17:24;;;;;;;0.47;0.43;;;6.20;99.90;;;;;;4985513;28;20172;-78
2021/04/08 11:19:54;;;;;;;1.00;0.57;;;6.10;99.90;;;;;;4986144;28;20192;-77
2021/04/08 11:22:25;;;;;;;0.77;0.43;;;6.10;99.90;;;;;;4986961;28;20203;-80
2021/04/08 11:24:53;;;;;;;0.60;0.60;;;6.00;99.90;;;;;;5001504;28;20199;-81
2021/04/08 11:27:36;;;;;;;0.60;0.40;;;6.20;99.90;;;;;;4986408;28;20227;-80
2021/04/08 11:30:04;;;;;;;0.97;0.97;;;6.20;99.90;;;;;;4986053;28;20208;-80
2021/04/08 11:32:29;;;;;;;1.93;0.50;;;6.40;99.90;;;;;;4985395;28;20208;-80
2021/04/08 11:34:57;;;;;;;2.40;0.50;;;6.70;99.90;;;;;;4985125;28;20207;-79
2021/04/08 11:37:39;;;;;;;4.00;0.97;;;7.00;99.90;;;;;;4984845;28;20271;-80
2021/04/08 11:40:08;;;;;;;1.00;0.40;;;7.30;99.90;;;;;;4985266;28;20188;-80
2021/04/08 11:42:43;;;;;;;2.37;1.50;;;7.80;99.90;;;;;;4986422;28;20581;-80
2021/04/08 11:45:23;;;;;;;0.63;0.53;;;8.10;99.90;;;;;;5001070;28;20741;-81
2021/04/08 11:48:06;;;;;;;0.67;0.60;;;8.00;99.90;;;;;;5001534;28;20204;-82
2021/04/08 11:50:37;;;;;;;1.23;0.63;;;7.70;99.90;;;;;;4986181;28;20215;-81
2021/04/08 11:53:15;;;;;;;0.80;0.50;;;7.40;99.90;;;;;;4985301;28;20772;-80
2021/04/08 11:55:49;;;;;;;0.30;0.30;;;7.20;99.90;;;;;;4984473;28;20804;-79
2021/04/08 11:58:41;;;;;;;0.97;0.70;;;6.80;99.90;;;;;;4984897;28;20681;-80
2021/04/08 12:01:14;;;;;;;0.57;0.40;;;6.70;99.90;;;;;;4986595;28;20223;-81
2021/04/08 12:03:42;;;;;;;0.67;0.53;;;6.50;99.90;;;;;;4985247;28;20322;-82
2021/04/08 12:06:11;;;;;;;1.10;0.70;;;6.50;99.90;;;;;;4985072;28;20187;-80
2021/04/08 12:08:45;;;;;;;0.40;0.40;;;6.30;99.90;;;;;;4975437;28;20262;-80
2021/04/08 12:11:12;;;;;;;1.63;0.47;;;6.20;99.90;;;;;;4983451;28;20639;-80
2021/04/08 12:13:38;;;;;;;1.13;0.93;;;6.10;99.90;;;;;;4984479;28;20184;-80
2021/04/08 12:16:06;;;;;;;0.40;0.40;;;6.10;99.90;;;;;;4984741;28;20279;-80
2021/04/08 12:18:32;;;;;;;0.60;0.60;;;6.10;99.90;;;;;;4984011;28;20192;-81
2021/04/08 12:21:08;;;;;;;0.73;0.73;;;6.00;99.90;;;;;;4985632;28;20187;-80
2021/04/08 12:23:35;;;;;;;0.40;0.40;;;5.90;99.90;;;;;;4984302;28;20187;-80
2021/04/08 12:26:02;;;;;;;0.30;0.30;;;6.00;99.90;;;;;;4986010;28;20192;-77
2021/04/08 12:28:28;;;;;;;0.77;0.40;;;6.20;99.90;;;;;;4987287;28;20196;-80
2021/04/08 12:31:02;;;;;;;0.80;0.80;;;6.40;99.90;;;;;;4983465;28;20206;-79
2021/04/08 12:33:39;;;;;;;1.53;1.13;;;6.50;99.90;;;;;;4984331;28;20187;-80
2021/04/08 12:36:07;;;;;;;0.77;0.70;;;6.70;99.90;;;;;;4984853;28;20180;-81
2021/04/08 12:38:34;;;;;;;0.93;0.53;;;7.10;99.90;;;;;;4983736;28;20291;-79
2021/04/08 12:41:00;;;;;;;0.50;0.50;;;7.20;99.90;;;;;;4985890;28;20195;-79
2021/04/08 12:43:28;;;;;;;1.20;1.10;;;7.40;99.90;;;;;;4985421;28;20184;-81
2021/04/08 12:45:54;;;;;;;1.00;0.53;;;7.40;99.90;;;;;;4983500;28;20180;-80
2021/04/08 12:48:20;;;;;;;0.60;0.60;;;7.40;99.90;;;;;;4981666;28;20624;-80
2021/04/08 12:50:47;;;;;;;0.53;0.53;;;7.50;99.90;;;;;;4982038;28;20725;-80
2021/04/08 12:53:13;;;;;;;3.90;1.93;;;7.30;99.90;;;;;;4981568;28;20323;-80
2021/04/08 12:55:40;;;;;;;0.90;0.63;;;7.00;99.90;;;;;;4981498;28;20192;-80
2021/04/08 12:58:06;;;;;;;1.20;0.90;;;6.90;99.90;;;;;;4981841;28;20213;-81
2021/04/08 13:00:33;;;;;;;2.43;1.33;;;6.80;99.90;;;;;;4981436;28;20184;-79
2021/04/08 13:02:59;;;;;;;0.50;0.50;;;6.80;99.90;;;;;;4982773;28;20220;-80
2021/04/08 13:05:25;;;;;;;3.17;0.80;;;6.90;99.90;;;;;;4981244;28;20227;-80
2021/04/08 13:07:51;;;;;;;0.83;0.63;;;7.00;99.90;;;;;;4981673;28;20653;-80
2021/04/08 13:10:17;;;;;;;1.00;0.63;;;7.10;99.90;;;;;;4983336;28;20208;-79